createdAt,value
2019-03-21T00:00:33.957Z,97143.73
2019-03-21T00:01:43.004Z,97149.48
2019-03-21T00:02:46.467Z,97146.73
2019-03-21T00:03:51.624Z,97153.80
2019-03-21T00:04:55.128Z,97152.84
2019-03-21T00:05:58.604Z,97143.49
2019-03-21T00:07:02.035Z,97149.64
2019-03-21T00:08:06.697Z,97147.17
2019-03-21T00:09:12.561Z,97148.68
2019-03-21T00:10:31.011Z,97145.08
2019-03-21T00:12:05.233Z,97146.12
2019-03-21T00:13:08.753Z,97139.50
2019-03-21T00:14:17.843Z,97137.94
2019-03-21T00:15:27.332Z,97131.06
2019-03-21T00:16:30.770Z,97134.44
2019-03-21T00:17:37.329Z,97131.70
2019-03-21T00:18:40.754Z,97133.59
2019-03-21T00:19:44.193Z,97134.10
2019-03-21T00:20:47.823Z,97131.55
2019-03-21T00:21:51.349Z,97138.10
2019-03-21T00:22:54.787Z,97134.52
2019-03-21T00:23:58.287Z,97131.61
2019-03-21T00:25:01.726Z,97129.55
2019-03-21T00:26:05.278Z,97134.74
2019-03-21T00:27:08.700Z,97131.75
2019-03-21T00:28:12.164Z,97128.97
2019-03-21T00:29:15.583Z,97126.28
2019-03-21T00:30:21.632Z,97130.53
2019-03-21T00:32:34.473Z,97124.05
2019-03-21T00:33:38.004Z,97125.33
2019-03-21T00:34:41.464Z,97128.06
2019-03-21T00:35:44.897Z,97130.70
2019-03-21T00:36:48.333Z,97129.80
2019-03-21T00:52:33.150Z,97126.91
2019-03-21T00:53:36.599Z,97122.21
2019-03-21T00:54:40.104Z,97132.56
2019-03-21T01:03:00.537Z,97118.90
2019-03-21T01:09:40.061Z,97115.02
2019-03-21T01:10:43.485Z,97105.05
2019-03-21T01:11:46.913Z,97108.77
2019-03-21T01:20:56.148Z,97109.66
2019-03-21T01:21:59.596Z,97108.52
2019-03-21T01:23:03.016Z,97106.72
2019-03-21T01:24:06.473Z,97108.09
2019-03-21T01:32:52.139Z,97089.84
2019-03-21T01:33:55.593Z,97087.13
2019-03-21T01:34:59.081Z,97081.50
2019-03-21T01:42:19.030Z,97071.72
2019-03-21T01:53:32.909Z,97072.36
2019-03-21T01:54:36.372Z,97071.61
2019-03-21T01:55:39.891Z,97068.39
2019-03-21T01:56:43.326Z,97068.89
2019-03-21T01:57:46.753Z,97069.22
2019-03-21T01:58:50.549Z,97060.91
2019-03-21T01:59:53.999Z,97067.06
2019-03-21T02:00:57.769Z,97065.92
2019-03-21T02:02:01.199Z,97065.37
2019-03-21T02:03:05.163Z,97060.03
2019-03-21T02:04:08.596Z,97062.59
2019-03-21T02:05:12.138Z,97064.45
2019-03-21T02:06:15.554Z,97062.19
2019-03-21T02:07:18.985Z,97068.41
2019-03-21T02:08:22.409Z,97066.73
2019-03-21T02:09:25.873Z,97065.92
2019-03-21T02:10:29.321Z,97066.41
2019-03-21T02:11:32.812Z,97062.70
2019-03-21T02:12:36.268Z,97069.16
2019-03-21T02:13:39.695Z,97060.62
2019-03-21T02:14:51.735Z,97060.81
2019-03-21T02:15:50.743Z,97066.08
2019-03-21T02:16:53.455Z,97065.59
2019-03-21T02:17:56.885Z,97063.22
2019-03-21T02:19:00.315Z,97065.52
2019-03-21T02:20:05.384Z,97068.52
2019-03-21T02:21:08.835Z,97067.92
2019-03-21T02:22:12.305Z,97071.26
2019-03-21T02:23:15.758Z,97070.06
2019-03-21T02:24:19.221Z,97066.56
2019-03-21T02:25:24.877Z,97074.96
2019-03-21T02:26:28.330Z,97073.03
2019-03-21T02:27:31.760Z,97074.44
2019-03-21T02:28:35.261Z,97072.66
2019-03-21T02:29:38.696Z,97064.91
2019-03-21T02:30:45.195Z,97070.52
2019-03-21T02:31:48.639Z,97072.97
2019-03-21T02:32:55.162Z,97071.92
2019-03-21T02:33:58.601Z,97074.34
2019-03-21T02:35:02.033Z,97079.64
2019-03-21T02:36:08.012Z,97072.01
2019-03-21T02:37:11.473Z,97070.00
2019-03-21T02:38:14.905Z,97069.45
2019-03-21T02:39:18.330Z,97072.75
2019-03-21T02:40:26.030Z,97070.48
2019-03-21T02:41:29.484Z,97070.59
2019-03-21T02:42:32.916Z,97065.73
2019-03-21T02:43:36.782Z,97071.04
2019-03-21T02:44:40.370Z,97070.48
2019-03-21T02:45:43.846Z,97071.45
2019-03-21T02:46:47.275Z,97071.93
2019-03-21T02:47:50.728Z,97076.05
2019-03-21T02:48:54.167Z,97071.38
2019-03-21T02:49:57.583Z,97066.37
2019-03-21T02:51:01.019Z,97074.68
2019-03-21T02:52:04.543Z,97070.30
2019-03-21T02:53:08.322Z,97071.04
2019-03-21T02:54:11.845Z,97067.23
2019-03-21T02:55:15.263Z,97076.60
2019-03-21T02:56:24.118Z,97074.16
2019-03-21T02:57:27.572Z,97068.27
2019-03-21T02:58:31.014Z,97068.08
2019-03-21T02:59:34.505Z,97066.00
2019-03-21T03:00:39.871Z,97069.05
2019-03-21T03:01:43.315Z,97071.23
2019-03-21T03:02:46.949Z,97067.22
2019-03-21T03:03:50.374Z,97070.55
2019-03-21T03:04:53.799Z,97069.34
2019-03-21T03:05:57.249Z,97066.26
2019-03-21T03:07:01.363Z,97070.85
2019-03-21T03:08:06.361Z,97064.88
2019-03-21T03:09:09.844Z,97067.22
2019-03-21T03:10:19.425Z,97067.77
2019-03-21T03:11:24.696Z,97075.55
2019-03-21T03:12:28.205Z,97071.08
2019-03-21T03:13:31.656Z,97070.23
2019-03-21T03:14:35.090Z,97078.01
2019-03-21T03:15:39.585Z,97068.33
2019-03-21T03:16:43.006Z,97064.14
2019-03-21T03:17:46.495Z,97059.28
2019-03-21T03:18:49.954Z,97068.61
2019-03-21T03:19:53.385Z,97067.54
2019-03-21T03:20:56.818Z,97066.80
2019-03-21T03:22:00.244Z,97067.44
2019-03-21T03:23:03.845Z,97069.02
2019-03-21T03:24:07.290Z,97065.70
2019-03-21T03:25:13.590Z,97066.92
2019-03-21T03:26:17.072Z,97065.28
2019-03-21T03:27:20.496Z,97067.44
2019-03-21T03:28:29.589Z,97073.45
2019-03-21T03:29:33.042Z,97073.45
2019-03-21T03:30:36.486Z,97069.27
2019-03-21T03:31:39.895Z,97064.81
2019-03-21T03:32:43.324Z,97078.27
2019-03-21T03:33:46.901Z,97067.22
2019-03-21T03:34:50.363Z,97078.03
2019-03-21T03:35:53.873Z,97073.98
2019-03-21T03:36:57.413Z,97075.41
2019-03-21T03:38:00.852Z,97071.97
2019-03-21T03:39:06.358Z,97076.58
2019-03-21T03:40:21.229Z,97074.31
2019-03-21T03:41:24.726Z,97069.58
2019-03-21T03:42:28.162Z,97072.17
2019-03-21T03:43:31.614Z,97076.06
2019-03-21T03:44:35.073Z,97072.76
2019-03-21T03:45:39.946Z,97072.59
2019-03-21T03:46:43.364Z,97076.28
2019-03-21T03:47:46.872Z,97078.48
2019-03-21T03:48:50.381Z,97079.52
2019-03-21T03:49:53.811Z,97076.84
2019-03-21T03:50:57.312Z,97077.70
2019-03-21T03:52:00.763Z,97080.94
2019-03-21T03:53:04.539Z,97076.30
2019-03-21T03:54:07.991Z,97074.42
2019-03-21T03:55:14.425Z,97077.39
2019-03-21T03:56:17.919Z,97078.62
2019-03-21T03:57:21.422Z,97081.22
2019-03-21T03:58:45.904Z,97070.06
2019-03-21T03:59:49.427Z,97072.45
2019-03-21T04:00:52.931Z,97070.94
2019-03-21T04:01:56.436Z,97073.95
2019-03-21T04:02:59.849Z,97071.75
2019-03-21T04:04:03.449Z,97072.40
2019-03-21T04:05:09.907Z,97071.39
2019-03-21T04:06:13.397Z,97076.52
2019-03-21T04:07:16.962Z,97078.30
2019-03-21T04:08:20.458Z,97078.62
2019-03-21T04:09:24.180Z,97067.83
2019-03-21T04:10:30.273Z,97077.97
2019-03-21T04:11:33.768Z,97068.63
2019-03-21T04:12:37.333Z,97077.16
2019-03-21T04:13:40.836Z,97072.79
2019-03-21T04:14:44.285Z,97071.72
2019-03-21T04:15:53.044Z,97067.37
2019-03-21T04:16:53.000Z,97067.83
2019-03-21T04:17:56.430Z,97067.44
2019-03-21T04:18:59.870Z,97071.58
2019-03-21T04:20:04.263Z,97072.39
2019-03-21T04:21:13.124Z,97068.05
2019-03-21T04:22:16.616Z,97066.87
2019-03-21T04:23:22.388Z,97063.21
2019-03-21T04:24:25.951Z,97068.95
2019-03-21T04:25:32.785Z,97061.43
2019-03-21T04:26:36.863Z,97065.16
2019-03-21T04:27:40.290Z,97067.50
2019-03-21T04:28:50.024Z,97066.03
2019-03-21T04:29:53.464Z,97065.85
2019-03-21T04:30:56.901Z,97059.61
2019-03-21T04:32:00.325Z,97062.84
2019-03-21T04:33:03.824Z,97058.64
2019-03-21T04:34:11.604Z,97054.70
2019-03-21T04:35:15.126Z,97057.81
2019-03-21T04:36:18.561Z,97057.17
2019-03-21T04:37:22.073Z,97057.56
2019-03-21T04:38:25.511Z,97051.33
2019-03-21T04:39:28.929Z,97049.19
2019-03-21T04:40:32.443Z,97051.69
2019-03-21T04:41:36.141Z,97046.77
2019-03-21T04:42:39.574Z,97047.98
2019-03-21T04:43:43.009Z,97044.13
2019-03-21T04:44:46.442Z,97047.89
2019-03-21T04:45:49.902Z,97046.34
2019-03-21T04:46:53.337Z,97042.45
2019-03-21T04:47:56.803Z,97035.03
2019-03-21T04:49:00.225Z,97039.53
2019-03-21T04:50:05.518Z,97037.78
2019-03-21T04:51:08.942Z,97043.55
2019-03-21T04:52:12.373Z,97033.44
2019-03-21T04:53:15.810Z,97030.14
2019-03-21T04:54:19.304Z,97033.47
2019-03-21T04:55:22.753Z,97032.41
2019-03-21T04:56:26.206Z,97030.49
2019-03-21T04:57:29.639Z,97027.25
2019-03-21T04:58:33.056Z,97029.91
2019-03-21T04:59:36.503Z,97021.74
2019-03-21T05:00:41.497Z,97027.48
2019-03-21T05:01:44.927Z,97019.92
2019-03-21T05:02:48.624Z,97022.25
2019-03-21T05:03:52.065Z,97020.73
2019-03-21T05:04:55.494Z,97023.29
2019-03-21T05:05:58.942Z,97022.91
2019-03-21T05:07:02.362Z,97015.84
2019-03-21T05:08:05.878Z,97015.88
2019-03-21T05:09:11.648Z,97014.06
2019-03-21T05:10:16.648Z,97019.31
2019-03-21T05:11:20.167Z,97016.37
2019-03-21T05:12:23.589Z,97017.27
2019-03-21T05:13:27.024Z,97017.39
2019-03-21T05:14:30.460Z,97012.98
2019-03-21T05:15:45.281Z,97014.45
2019-03-21T05:16:48.703Z,97012.83
2019-03-21T05:17:55.168Z,97012.73
2019-03-21T05:18:59.737Z,97007.78
2019-03-21T05:20:04.418Z,97008.06
2019-03-21T05:21:10.905Z,97007.16
2019-03-21T05:22:14.337Z,97006.39
2019-03-21T05:23:17.770Z,97004.16
2019-03-21T05:24:21.198Z,97001.20
2019-03-21T05:25:24.657Z,97000.81
2019-03-21T05:26:28.084Z,97006.00
2019-03-21T05:27:31.548Z,96999.61
2019-03-21T05:28:34.973Z,97007.16
2019-03-21T05:29:38.402Z,96996.75
2019-03-21T05:30:50.955Z,96997.50
2019-03-21T05:31:54.428Z,96997.22
2019-03-21T05:32:57.865Z,96999.06
2019-03-21T05:34:01.304Z,96992.68
2019-03-21T05:35:07.312Z,96965.08
2019-03-21T05:36:10.758Z,96993.23
2019-03-21T05:37:14.449Z,96990.64
2019-03-21T05:38:19.839Z,96989.96
2019-03-21T05:39:23.273Z,96995.63
2019-03-21T05:40:27.163Z,96998.80
2019-03-21T05:41:30.628Z,96999.29
2019-03-21T05:42:34.306Z,96995.08
2019-03-21T05:43:40.786Z,96999.06
2019-03-21T05:44:44.405Z,97001.39
2019-03-21T05:45:47.983Z,97003.14
2019-03-21T05:46:51.592Z,97009.08
2019-03-21T05:47:55.092Z,97010.14
2019-03-21T05:48:58.535Z,97008.36
2019-03-21T05:50:02.033Z,97012.09
2019-03-21T05:51:05.659Z,97011.24
2019-03-21T05:52:09.209Z,97013.74
2019-03-21T05:53:12.882Z,97015.33
2019-03-21T05:54:16.333Z,97012.19
2019-03-21T05:55:19.824Z,97006.09
2019-03-21T05:56:23.329Z,97017.40
2019-03-21T05:57:26.975Z,97014.42
2019-03-21T05:58:30.541Z,97024.33
2019-03-21T05:59:33.972Z,97016.97
2019-03-21T06:00:46.695Z,97018.35
2019-03-21T06:01:50.280Z,97018.58
2019-03-21T06:02:53.778Z,97016.53
2019-03-21T06:03:57.354Z,97022.31
2019-03-21T06:05:00.870Z,97023.13
2019-03-21T06:06:16.846Z,97022.80
2019-03-21T06:07:22.497Z,97022.69
2019-03-21T06:08:29.257Z,97025.06
2019-03-21T06:09:32.843Z,97024.55
2019-03-21T06:10:36.270Z,97024.09
2019-03-21T06:11:41.696Z,97023.28
2019-03-21T06:12:45.796Z,97025.32
2019-03-21T06:13:49.366Z,97030.14
2019-03-21T06:14:56.543Z,97030.52
2019-03-21T06:16:10.770Z,97025.88
2019-03-21T06:17:14.178Z,97030.77
2019-03-21T06:18:38.802Z,97032.11
2019-03-21T06:19:53.751Z,97037.75
2019-03-21T06:21:09.243Z,97036.19
2019-03-21T06:22:27.616Z,97037.34
2019-03-21T06:23:48.989Z,97045.83
2019-03-21T06:25:10.389Z,97041.64
2019-03-21T06:26:40.589Z,97041.27
2019-03-21T06:27:44.049Z,97042.86
2019-03-21T06:28:47.497Z,97042.86
2019-03-21T06:29:51.763Z,97044.64
2019-03-21T06:30:55.309Z,97045.08
2019-03-21T06:31:58.817Z,97050.42
2019-03-21T06:33:02.251Z,97041.00
2019-03-21T06:34:05.789Z,97049.19
2019-03-21T06:35:20.253Z,97050.53
2019-03-21T06:36:23.675Z,97052.94
2019-03-21T06:37:28.851Z,97043.43
2019-03-21T06:38:32.493Z,97046.88
2019-03-21T06:39:35.936Z,97050.83
2019-03-21T06:40:39.363Z,97049.19
2019-03-21T06:41:42.795Z,97046.55
2019-03-21T06:42:46.230Z,97047.58
2019-03-21T06:43:49.654Z,97048.05
2019-03-21T06:44:53.211Z,97050.08
2019-03-21T06:45:56.636Z,97048.82
2019-03-21T06:47:00.069Z,97052.98
2019-03-21T06:48:03.502Z,97053.34
2019-03-21T06:49:06.938Z,97057.19
2019-03-21T06:50:10.526Z,97053.59
2019-03-21T06:51:13.963Z,97050.27
2019-03-21T06:52:17.373Z,97050.01
2019-03-21T06:53:20.819Z,97056.75
2019-03-21T06:54:24.344Z,97057.58
2019-03-21T06:55:27.893Z,97053.81
2019-03-21T06:56:31.340Z,97059.40
2019-03-21T06:57:34.857Z,97057.76
2019-03-21T06:58:38.361Z,97058.53
2019-03-21T06:59:41.824Z,97059.02
2019-03-21T07:00:45.390Z,97061.45
2019-03-21T07:01:49.026Z,97061.83
2019-03-21T07:02:52.457Z,97062.56
2019-03-21T07:04:06.302Z,97064.98
2019-03-21T07:05:01.144Z,97060.57
2019-03-21T07:06:04.715Z,97061.87
2019-03-21T07:07:08.746Z,97066.72
2019-03-21T07:08:12.196Z,97065.15
2019-03-21T07:09:15.603Z,97066.02
2019-03-21T07:10:19.226Z,97067.89
2019-03-21T07:11:22.666Z,97072.95
2019-03-21T07:12:26.118Z,97068.66
2019-03-21T07:13:29.539Z,97073.74
2019-03-21T07:14:32.974Z,97073.30
2019-03-21T07:15:36.642Z,97072.90
2019-03-21T07:16:40.323Z,97065.87
2019-03-21T07:17:43.757Z,97073.84
2019-03-21T07:18:47.254Z,97076.70
2019-03-21T07:19:50.772Z,97075.92
2019-03-21T07:20:54.215Z,97065.48
2019-03-21T07:21:57.719Z,97066.67
2019-03-21T07:23:01.238Z,97070.17
2019-03-21T07:24:05.048Z,97067.32
2019-03-21T07:25:09.553Z,97067.80
2019-03-21T07:26:13.040Z,97065.87
2019-03-21T07:27:16.475Z,97067.17
2019-03-21T07:28:20.013Z,97065.87
2019-03-21T07:29:23.480Z,97069.06
2019-03-21T07:30:26.988Z,97066.35
2019-03-21T07:31:30.495Z,97065.05
2019-03-21T07:32:34.013Z,97066.30
2019-03-21T07:33:37.474Z,97068.55
2019-03-21T07:34:41.041Z,97065.11
2019-03-21T07:35:44.485Z,97068.36
2019-03-21T07:36:47.961Z,97069.33
2019-03-21T07:37:51.390Z,97064.51
2019-03-21T07:38:54.817Z,97068.83
2019-03-21T07:39:58.269Z,97065.06
2019-03-21T07:41:01.779Z,97069.80
2019-03-21T07:42:05.299Z,97077.47
2019-03-21T07:43:08.781Z,97073.56
2019-03-21T07:44:12.211Z,97071.90
2019-03-21T07:45:15.879Z,97078.19
2019-03-21T07:46:19.414Z,97071.43
2019-03-21T07:47:22.945Z,97083.61
2019-03-21T07:48:26.390Z,97081.73
2019-03-21T07:49:29.820Z,97084.91
2019-03-21T07:50:33.251Z,97080.06
2019-03-21T07:51:36.710Z,97076.88
2019-03-21T07:52:40.217Z,97076.73
2019-03-21T07:53:43.651Z,97073.42
2019-03-21T07:54:47.078Z,97069.11
2019-03-21T07:55:50.502Z,97068.45
2019-03-21T07:56:53.950Z,97068.33
2019-03-21T07:57:59.374Z,97069.58
2019-03-21T07:59:02.703Z,97066.08
2019-03-21T08:00:09.172Z,97060.09
2019-03-21T08:01:12.616Z,97059.73
2019-03-21T08:02:16.114Z,97067.11
2019-03-21T08:03:19.634Z,97065.69
2019-03-21T08:04:23.157Z,97061.94
2019-03-21T08:05:26.624Z,97067.15
2019-03-21T08:06:30.082Z,97064.98
2019-03-21T08:07:33.502Z,97073.09
2019-03-21T08:08:36.932Z,97071.77
2019-03-21T08:09:40.472Z,97065.36
2019-03-21T08:10:43.997Z,97073.36
2019-03-21T08:11:47.539Z,97071.75
2019-03-21T08:12:51.125Z,97068.61
2019-03-21T08:13:54.556Z,97064.08
2019-03-21T08:14:57.980Z,97060.36
2019-03-21T08:16:01.649Z,97055.55
2019-03-21T08:17:05.237Z,97067.58
2019-03-21T08:18:08.685Z,97062.23
2019-03-21T08:19:12.183Z,97064.00
2019-03-21T08:20:16.958Z,97058.86
2019-03-21T08:21:20.396Z,97059.03
2019-03-21T08:22:24.021Z,97061.95
2019-03-21T08:23:27.459Z,97057.59
2019-03-21T08:24:30.969Z,97062.14
2019-03-21T08:25:34.466Z,97055.23
2019-03-21T08:26:37.906Z,97056.16
2019-03-21T08:27:41.535Z,97063.85
2019-03-21T08:28:44.960Z,97057.27
2019-03-21T08:29:48.453Z,97058.25
2019-03-21T08:31:01.019Z,97062.31
2019-03-21T08:32:04.466Z,97059.87
2019-03-21T08:33:07.962Z,97062.81
2019-03-21T08:34:11.390Z,97057.34
2019-03-21T08:35:14.973Z,97063.48
2019-03-21T08:36:18.510Z,97058.05
2019-03-21T08:37:21.967Z,97055.83
2019-03-21T08:38:25.382Z,97066.66
2019-03-21T08:39:28.812Z,97067.47
2019-03-21T08:40:32.432Z,97063.73
2019-03-21T08:41:35.999Z,97058.19
2019-03-21T08:42:39.496Z,97063.88
2019-03-21T08:43:42.917Z,97060.88
2019-03-21T08:44:46.339Z,97055.78
2019-03-21T08:45:49.776Z,97065.97
2019-03-21T08:46:53.206Z,97059.22
2019-03-21T08:47:56.740Z,97058.52
2019-03-21T08:49:00.148Z,97057.59
2019-03-21T08:50:06.110Z,97064.04
2019-03-21T08:51:09.542Z,97059.59
2019-03-21T08:52:13.018Z,97062.02
2019-03-21T08:53:16.458Z,97064.48
2019-03-21T08:54:19.879Z,97061.09
2019-03-21T08:55:23.302Z,97056.97
2019-03-21T08:56:26.794Z,97060.88
2019-03-21T08:57:30.324Z,97058.73
2019-03-21T08:58:33.772Z,97057.02
2019-03-21T08:59:37.268Z,97051.03
2019-03-21T09:00:40.776Z,97054.66
2019-03-21T09:01:44.285Z,97051.08
2019-03-21T09:02:47.835Z,97047.54
2019-03-21T09:03:51.417Z,97051.22
2019-03-21T09:04:54.847Z,97052.63
2019-03-21T09:05:58.267Z,97053.33
2019-03-21T09:07:01.775Z,97058.34
2019-03-21T09:08:05.367Z,97052.47
2019-03-21T09:09:09.167Z,97048.09
2019-03-21T09:10:12.665Z,97053.11
2019-03-21T09:11:16.103Z,97056.47
2019-03-21T09:12:22.263Z,97044.17
2019-03-21T09:13:25.710Z,97048.70
2019-03-21T09:14:29.199Z,97054.52
2019-03-21T09:15:32.635Z,97045.95
2019-03-21T09:16:36.137Z,97049.79
2019-03-21T09:17:39.574Z,97047.33
2019-03-21T09:18:42.998Z,97039.89
2019-03-21T09:19:46.497Z,97048.59
2019-03-21T09:20:49.985Z,97049.17
2019-03-21T09:21:53.423Z,97045.44
2019-03-21T09:22:56.847Z,97049.37
2019-03-21T09:24:00.282Z,97039.52
2019-03-21T09:25:05.449Z,97038.91
2019-03-21T09:26:08.906Z,97031.92
2019-03-21T09:27:12.345Z,97036.70
2019-03-21T09:28:15.784Z,97036.28
2019-03-21T09:29:19.220Z,97044.34
2019-03-21T09:30:22.899Z,97045.03
2019-03-21T09:31:26.293Z,97036.65
2019-03-21T09:32:29.721Z,97039.19
2019-03-21T09:33:33.216Z,97038.12
2019-03-21T09:34:36.597Z,97037.32
2019-03-21T09:35:40.025Z,97035.59
2019-03-21T09:36:43.453Z,97033.42
2019-03-21T09:37:46.880Z,97035.72
2019-03-21T09:38:50.337Z,97037.88
2019-03-21T09:39:53.773Z,97027.59
2019-03-21T09:40:57.202Z,97035.69
2019-03-21T09:42:00.630Z,97036.94
2019-03-21T09:43:04.228Z,97032.59
2019-03-21T09:44:07.796Z,97026.50
2019-03-21T09:45:11.395Z,97024.23
2019-03-21T09:46:14.966Z,97028.19
2019-03-21T09:47:18.411Z,97027.05
2019-03-21T09:48:21.848Z,97030.99
2019-03-21T09:49:25.352Z,97026.86
2019-03-21T09:50:29.916Z,97025.31
2019-03-21T09:51:33.349Z,97024.45
2019-03-21T09:52:36.917Z,97021.48
2019-03-21T09:53:40.362Z,97032.00
2019-03-21T09:54:43.783Z,97021.44
2019-03-21T09:55:47.284Z,97020.87
2019-03-21T09:56:50.760Z,97025.22
2019-03-21T09:57:54.258Z,97020.57
2019-03-21T09:58:57.718Z,97023.98
2019-03-21T10:00:01.207Z,97024.11
2019-03-21T10:01:04.707Z,97016.92
2019-03-21T10:02:08.133Z,97019.31
2019-03-21T10:03:11.563Z,97016.94
2019-03-21T10:04:14.996Z,97027.77
2019-03-21T10:05:18.497Z,97025.77
2019-03-21T10:06:21.928Z,97030.45
2019-03-21T10:07:25.351Z,97017.38
2019-03-21T10:08:28.779Z,97015.42
2019-03-21T10:09:32.233Z,97019.37
2019-03-21T10:10:35.803Z,97016.08
2019-03-21T10:11:39.229Z,97011.27
2019-03-21T10:12:42.655Z,97011.75
2019-03-21T10:13:46.095Z,97015.20
2019-03-21T10:14:49.530Z,97007.67
2019-03-21T10:15:53.041Z,97009.09
2019-03-21T10:16:56.602Z,97010.06
2019-03-21T10:18:00.192Z,97004.05
2019-03-21T10:19:03.610Z,97007.44
2019-03-21T10:20:07.375Z,97009.19
2019-03-21T10:21:10.802Z,97001.55
2019-03-21T10:22:14.236Z,97008.11
2019-03-21T10:23:17.673Z,97003.84
2019-03-21T10:24:21.116Z,97006.37
2019-03-21T10:25:26.680Z,97004.75
2019-03-21T10:26:29.688Z,96998.64
2019-03-21T10:27:33.112Z,97006.40
2019-03-21T10:28:36.541Z,97002.46
2019-03-21T10:29:39.999Z,97003.23
2019-03-21T10:30:43.571Z,97005.30
2019-03-21T10:31:47.018Z,96999.75
2019-03-21T10:32:50.454Z,97013.19
2019-03-21T10:33:53.876Z,97003.88
2019-03-21T10:34:57.400Z,97005.52
2019-03-21T10:36:00.849Z,97002.14
2019-03-21T10:37:04.346Z,97002.14
2019-03-21T10:38:08.240Z,97001.91
2019-03-21T10:39:11.689Z,97001.91
2019-03-21T10:40:15.490Z,97003.09
2019-03-21T10:41:18.944Z,97003.84
2019-03-21T10:42:22.377Z,97003.43
2019-03-21T10:43:25.792Z,96997.73
2019-03-21T10:44:29.245Z,96999.36
2019-03-21T10:45:32.848Z,97001.09
2019-03-21T10:46:36.351Z,96994.31
2019-03-21T10:47:39.845Z,96994.31
2019-03-21T10:48:43.271Z,96994.30
2019-03-21T10:49:46.817Z,96998.67
2019-03-21T10:50:50.400Z,96990.91
2019-03-21T10:51:55.118Z,96983.37
2019-03-21T10:52:59.257Z,96987.94
2019-03-21T10:54:02.826Z,96993.59
2019-03-21T10:55:06.912Z,96990.28
2019-03-21T10:56:10.405Z,96984.92
2019-03-21T10:57:13.900Z,96985.69
2019-03-21T10:58:17.474Z,96977.58
2019-03-21T10:59:20.926Z,96983.16
2019-03-21T11:00:24.508Z,96984.16
2019-03-21T11:01:27.935Z,96988.69
2019-03-21T11:02:31.407Z,96988.69
2019-03-21T11:03:34.924Z,96983.36
2019-03-21T11:04:38.362Z,96984.77
2019-03-21T11:05:41.953Z,96980.29
2019-03-21T11:06:45.455Z,96977.71
2019-03-21T11:07:48.883Z,96986.10
2019-03-21T11:08:52.363Z,96977.97
2019-03-21T11:09:55.934Z,96977.97
2019-03-21T11:10:59.471Z,96981.38
2019-03-21T11:12:02.895Z,96979.17
2019-03-21T11:13:06.501Z,96984.19
2019-03-21T11:14:09.906Z,96978.13
2019-03-21T11:15:13.709Z,96985.23
2019-03-21T11:16:17.241Z,96975.02
2019-03-21T11:17:20.730Z,96976.16
2019-03-21T11:18:35.521Z,96978.61
2019-03-21T11:19:29.478Z,96983.69
2019-03-21T11:20:35.018Z,96969.10
2019-03-21T11:21:38.437Z,96972.97
2019-03-21T11:22:41.882Z,96963.80
2019-03-21T11:23:45.358Z,96963.80
2019-03-21T11:24:48.817Z,96972.77
2019-03-21T11:25:52.346Z,96971.52
2019-03-21T11:26:55.866Z,96968.80
2019-03-21T11:27:59.308Z,96968.99
2019-03-21T11:29:02.811Z,96973.11
2019-03-21T11:30:15.602Z,96962.03
2019-03-21T11:31:12.681Z,96970.92
2019-03-21T11:32:16.117Z,96963.64
2019-03-21T11:33:19.701Z,96968.07
2019-03-21T11:34:23.137Z,96968.10
2019-03-21T11:35:26.642Z,96963.38
2019-03-21T11:36:38.257Z,96964.57
2019-03-21T11:37:35.332Z,96954.58
2019-03-21T11:38:38.836Z,96958.91
2019-03-21T11:39:42.411Z,96956.34
2019-03-21T11:40:48.255Z,96956.50
2019-03-21T11:41:51.163Z,96966.95
2019-03-21T11:42:54.687Z,96960.45
2019-03-21T11:43:58.109Z,96964.73
2019-03-21T11:45:01.568Z,96954.86
2019-03-21T11:46:05.067Z,96951.38
2019-03-21T11:47:08.594Z,96943.88
2019-03-21T11:48:12.172Z,96936.25
2019-03-21T11:49:15.597Z,96941.80
2019-03-21T11:50:19.039Z,96941.44
2019-03-21T11:51:22.566Z,96941.07
2019-03-21T11:52:26.022Z,96934.03
2019-03-21T11:53:29.452Z,96937.02
2019-03-21T11:54:32.906Z,96929.53
2019-03-21T11:55:36.402Z,96932.89
2019-03-21T11:56:39.852Z,96925.71
2019-03-21T11:57:43.289Z,96923.30
2019-03-21T11:58:46.821Z,96925.35
2019-03-21T11:59:51.786Z,96923.48
2019-03-21T12:00:55.429Z,96921.94
2019-03-21T12:01:58.898Z,96925.62
2019-03-21T12:03:04.250Z,96916.66
2019-03-21T12:04:07.571Z,96917.45
2019-03-21T12:05:11.160Z,96914.30
2019-03-21T12:06:14.585Z,96904.73
2019-03-21T12:07:18.050Z,96917.73
2019-03-21T12:08:21.489Z,96911.03
2019-03-21T12:09:24.919Z,96909.19
2019-03-21T12:10:28.363Z,96912.91
2019-03-21T12:11:31.792Z,96905.30
2019-03-21T12:12:35.410Z,96908.12
2019-03-21T12:13:38.853Z,96893.55
2019-03-21T12:14:42.358Z,96900.42
2019-03-21T12:15:45.797Z,96901.93
2019-03-21T12:16:49.223Z,96904.58
2019-03-21T12:17:52.685Z,96902.53
2019-03-21T12:18:56.113Z,96897.78
2019-03-21T12:19:59.549Z,96899.34
2019-03-21T12:21:02.973Z,96898.36
2019-03-21T12:22:06.418Z,96891.45
2019-03-21T12:23:09.935Z,96891.37
2019-03-21T12:24:13.402Z,96886.29
2019-03-21T12:25:16.825Z,96884.48
2019-03-21T12:26:20.251Z,96886.84
2019-03-21T12:27:23.688Z,96882.52
2019-03-21T12:28:27.135Z,96882.27
2019-03-21T12:29:30.605Z,96888.16
2019-03-21T12:30:38.290Z,96890.73
2019-03-21T12:31:41.730Z,96891.06
2019-03-21T12:32:45.161Z,96881.52
2019-03-21T12:33:48.605Z,96879.42
2019-03-21T12:34:52.061Z,96876.45
2019-03-21T12:35:55.495Z,96867.50
2019-03-21T12:36:58.936Z,96879.84
2019-03-21T12:38:02.526Z,96880.57
2019-03-21T12:39:08.224Z,96875.66
2019-03-21T12:40:11.795Z,96874.09
2019-03-21T12:41:15.216Z,96873.56
2019-03-21T12:42:20.114Z,96873.03
2019-03-21T12:43:23.474Z,96863.93
2019-03-21T12:44:26.939Z,96873.38
2019-03-21T12:45:30.375Z,96871.20
2019-03-21T12:46:34.821Z,96869.55
2019-03-21T12:47:38.249Z,96861.83
2019-03-21T12:48:41.682Z,96855.81
2019-03-21T12:49:45.152Z,96853.08
2019-03-21T12:50:48.643Z,96847.14
2019-03-21T12:51:52.147Z,96852.58
2019-03-21T12:52:55.581Z,96840.47
2019-03-21T12:53:59.013Z,96839.41
2019-03-21T12:55:02.528Z,96845.03
2019-03-21T12:56:06.036Z,96843.32
2019-03-21T12:57:09.501Z,96839.88
2019-03-21T12:58:12.955Z,96841.28
2019-03-21T12:59:16.386Z,96843.98
2019-03-21T13:00:31.506Z,96843.22
2019-03-21T13:01:34.949Z,96839.33
2019-03-21T13:02:38.393Z,96834.98
2019-03-21T13:03:41.894Z,96833.19
2019-03-21T13:04:45.333Z,96831.88
2019-03-21T13:05:48.901Z,96833.35
2019-03-21T13:06:52.365Z,96831.49
2019-03-21T13:07:55.881Z,96833.76
2019-03-21T13:08:59.319Z,96839.52
2019-03-21T13:10:03.050Z,96836.42
2019-03-21T13:11:06.560Z,96834.89
2019-03-21T13:12:09.998Z,96835.89
2019-03-21T13:13:13.570Z,96835.44
2019-03-21T13:14:17.025Z,96834.50
2019-03-21T13:15:29.914Z,96834.85
2019-03-21T13:16:26.700Z,96825.42
2019-03-21T13:17:30.162Z,96830.59
2019-03-21T13:18:33.603Z,96830.04
2019-03-21T13:19:37.046Z,96832.88
2019-03-21T13:20:40.575Z,96832.00
2019-03-21T13:21:44.032Z,96826.14
2019-03-21T13:22:52.991Z,96831.66
2019-03-21T13:23:52.624Z,96825.95
2019-03-21T13:24:56.077Z,96820.16
2019-03-21T13:25:59.575Z,96824.35
2019-03-21T13:27:03.020Z,96827.28
2019-03-21T13:28:06.658Z,96836.39
2019-03-21T13:29:10.116Z,96825.72
2019-03-21T13:30:14.295Z,96830.35
2019-03-21T13:31:17.761Z,96829.76
2019-03-21T13:32:21.271Z,96828.86
2019-03-21T13:33:24.714Z,96823.45
2019-03-21T13:34:28.142Z,96818.03